Metar Aviation Weather Data ENHD

3°C Temp
-1°C Dewpoint
% Humidity
Temperature
23 KM/H
14 MPH
12 KTS
160°
South South
East

Wind Speed
Partly Cloudy
Conditions
Pressure 992.92 (hPa) - 29.32 (in)
Visibility 6.2 (mi) - 10 (km)

Current Conditions
ENHD
Metar :ENHD 271350Z 16012KT 9999 FEW023 SCT037 BKN200 03/M01 Q0993
Thu 27th February 15:50 pm

  Metar Aviation API Data Provided by https://www.checkwx.com/ PHP scripts by weather34.com ©2020